Time;durP1;ratioP1;P1;durP2;ratioP2;P2;SDS_P1;SDS_P2;PMS_P1;PMS_P2;Temp;Humidity;BMP_temperature;BMP_pressure;BME280_temperature;BME280_humidity;BME280_pressure;Samples;Min_cycle;Max_cycle;Signal;HPM_P1;HPM_P2
2022/06/16 00:00:37;;;;;;;2.70;1.95;;;15.20;99.90;;;;;;5011028;28;20328;-71
2022/06/16 00:03:05;;;;;;;5.18;2.38;;;15.20;99.90;;;;;;5011553;28;20293;-71
2022/06/16 00:05:35;;;;;;;3.88;2.42;;;15.10;99.90;;;;;;5014223;28;20697;-73
2022/06/16 00:08:03;;;;;;;4.80;2.30;;;15.10;99.90;;;;;;5029082;28;20204;-69
2022/06/16 00:10:32;;;;;;;8.07;2.53;;;15.20;99.90;;;;;;5025357;28;20213;-70
2022/06/16 00:12:59;;;;;;;4.55;1.80;;;15.20;99.90;;;;;;5012703;28;20208;-71
2022/06/16 00:15:28;;;;;;;10.63;2.80;;;15.20;99.90;;;;;;5018513;28;20655;-71
2022/06/16 00:17:55;;;;;;;5.13;2.53;;;15.10;99.90;;;;;;5015036;28;20196;-72
2022/06/16 00:20:23;;;;;;;5.40;2.65;;;15.10;99.90;;;;;;5023162;28;20270;-71
2022/06/16 00:22:50;;;;;;;5.93;2.65;;;15.20;99.90;;;;;;5016027;28;20200;-70
2022/06/16 00:25:17;;;;;;;5.72;2.10;;;15.20;99.90;;;;;;5013129;28;20280;-68
2022/06/16 00:27:45;;;;;;;6.78;2.75;;;15.20;99.90;;;;;;5021124;28;20290;-70
2022/06/16 00:30:14;;;;;;;6.35;2.65;;;15.20;99.90;;;;;;5015882;28;20787;-70
2022/06/16 00:32:42;;;;;;;3.13;2.63;;;15.20;99.90;;;;;;5023518;28;20280;-70
2022/06/16 00:35:10;;;;;;;5.15;2.78;;;15.10;99.90;;;;;;5021270;28;20294;-70
2022/06/16 00:37:37;;;;;;;5.80;2.47;;;15.10;99.90;;;;;;5019472;28;20627;-71
2022/06/16 00:40:12;;;;;;;5.90;3.10;;;15.00;99.90;;;;;;5011245;28;20225;-69
2022/06/16 00:42:39;;;;;;;3.15;2.20;;;15.10;99.90;;;;;;5005131;28;20669;-69
2022/06/16 00:45:39;;;;;;;8.93;2.78;;;15.00;99.90;;;;;;5008552;28;20299;-68
2022/06/16 00:48:08;;;;;;;2.30;1.75;;;15.00;99.90;;;;;;5015192;28;20236;-71
2022/06/16 00:50:35;;;;;;;7.90;2.45;;;15.00;99.90;;;;;;5008541;28;20344;-72
2022/06/16 00:53:02;;;;;;;9.75;3.25;;;14.90;99.90;;;;;;5012311;28;20224;-72
2022/06/16 00:55:29;;;;;;;11.63;3.58;;;14.90;99.90;;;;;;5021190;28;20296;-71
2022/06/16 00:57:56;;;;;;;4.75;2.20;;;14.90;99.90;;;;;;5018267;28;20193;-71
2022/06/16 01:00:24;;;;;;;6.07;2.55;;;14.90;99.90;;;;;;5002797;28;20347;-70
2022/06/16 01:02:51;;;;;;;4.80;2.78;;;14.90;99.90;;;;;;5012042;28;20212;-72
2022/06/16 01:05:19;;;;;;;7.00;3.58;;;14.80;99.90;;;;;;5013696;28;20247;-72
2022/06/16 01:07:47;;;;;;;3.40;2.15;;;14.80;99.90;;;;;;5019632;28;20200;-69
2022/06/16 01:10:16;;;;;;;5.78;2.58;;;14.80;99.90;;;;;;5015674;28;20243;-69
2022/06/16 01:15:56;;;;;;;3.45;2.17;;;14.80;99.90;;;;;;5011929;28;20212;-72
2022/06/16 01:18:29;;;;;;;4.70;2.40;;;14.70;99.90;;;;;;5010752;28;20207;-70
2022/06/16 01:21:04;;;;;;;6.75;3.03;;;14.70;99.90;;;;;;5011307;28;20235;-69
2022/06/16 01:24:16;;;;;;;4.30;2.65;;;14.60;99.90;;;;;;5012162;28;20556;-71
2022/06/16 01:27:21;;;;;;;5.80;3.00;;;14.60;99.90;;;;;;5012700;28;20238;-70
2022/06/16 01:29:55;;;;;;;3.58;2.33;;;14.60;99.90;;;;;;5003786;28;20256;-70
2022/06/16 01:32:36;;;;;;;10.43;3.22;;;14.60;99.90;;;;;;5029516;28;20203;-72
2022/06/16 01:35:12;;;;;;;8.95;2.85;;;14.60;99.90;;;;;;5019303;28;20277;-72
2022/06/16 01:37:48;;;;;;;5.00;3.35;;;14.50;99.90;;;;;;5023173;28;20654;-72
2022/06/16 01:40:20;;;;;;;8.05;3.10;;;14.50;99.90;;;;;;5024876;28;20340;-73
2022/06/16 01:42:53;;;;;;;4.68;2.80;;;14.50;99.90;;;;;;5023499;28;20279;-73
2022/06/16 01:45:28;;;;;;;5.45;3.15;;;14.50;99.90;;;;;;5029179;28;20747;-73
2022/06/16 01:47:56;;;;;;;6.85;2.55;;;14.50;99.90;;;;;;5013280;28;20243;-70
2022/06/16 01:50:28;;;;;;;4.28;2.63;;;14.50;99.90;;;;;;5016394;28;20230;-74
2022/06/16 01:53:02;;;;;;;12.07;4.20;;;14.50;99.90;;;;;;5012343;28;20244;-74
2022/06/16 01:55:34;;;;;;;3.88;2.85;;;14.50;99.90;;;;;;5013962;28;20205;-71
2022/06/16 01:58:05;;;;;;;3.35;2.55;;;14.50;99.90;;;;;;5019515;28;20205;-69
2022/06/16 02:00:35;;;;;;;5.55;2.65;;;14.50;99.90;;;;;;5016220;28;20225;-70
2022/06/16 02:03:05;;;;;;;5.30;2.85;;;14.50;99.90;;;;;;5024461;28;20275;-71
2022/06/16 02:05:39;;;;;;;5.30;2.97;;;14.50;99.90;;;;;;5013558;28;20283;-70
2022/06/16 02:08:10;;;;;;;6.47;2.70;;;14.40;99.90;;;;;;5024815;28;20204;-70
2022/06/16 02:10:42;;;;;;;4.32;2.95;;;14.40;99.90;;;;;;5028892;28;20252;-70
2022/06/16 02:13:12;;;;;;;9.40;3.03;;;14.30;99.90;;;;;;5014323;28;20205;-71
2022/06/16 02:15:51;;;;;;;5.72;3.25;;;14.20;99.90;;;;;;5026887;28;20283;-70
2022/06/16 02:18:23;;;;;;;5.38;3.65;;;14.10;99.90;;;;;;5020072;28;20267;-70
2022/06/16 02:20:56;;;;;;;6.10;3.15;;;14.10;99.90;;;;;;5020210;28;20307;-70
2022/06/16 02:23:23;;;;;;;5.53;3.00;;;14.00;99.90;;;;;;5014645;28;20207;-70
2022/06/16 02:25:54;;;;;;;7.30;3.47;;;14.00;99.90;;;;;;5015353;28;20240;-71
2022/06/16 02:28:21;;;;;;;10.65;5.30;;;14.00;99.90;;;;;;5013954;28;20293;-72
2022/06/16 02:31:02;;;;;;;5.53;3.47;;;13.90;99.90;;;;;;5014068;28;20289;-73
2022/06/16 02:33:39;;;;;;;5.53;3.75;;;13.90;99.90;;;;;;5006374;28;20197;-71
2022/06/16 02:36:21;;;;;;;7.20;3.60;;;13.90;99.90;;;;;;5015751;28;20267;-72
2022/06/16 02:39:00;;;;;;;8.75;4.22;;;13.80;99.90;;;;;;5013183;28;20283;-72
2022/06/16 02:41:33;;;;;;;4.40;2.78;;;13.90;99.90;;;;;;5012461;28;20288;-71
2022/06/16 02:44:17;;;;;;;4.38;2.53;;;13.90;99.90;;;;;;5014143;28;20247;-73
2022/06/16 02:46:53;;;;;;;4.13;3.45;;;13.90;99.90;;;;;;5014214;28;20567;-73
2022/06/16 02:49:28;;;;;;;8.25;3.80;;;13.80;99.90;;;;;;5012720;28;20789;-71
2022/06/16 02:52:08;;;;;;;6.57;3.88;;;13.90;99.90;;;;;;5009889;28;20202;-72
2022/06/16 02:54:44;;;;;;;3.50;2.80;;;13.80;99.90;;;;;;5013247;28;20528;-73
2022/06/16 02:57:18;;;;;;;5.80;2.42;;;13.80;99.90;;;;;;5004431;28;20254;-73
2022/06/16 02:59:48;;;;;;;4.80;3.63;;;13.80;99.90;;;;;;5028038;28;20645;-71
2022/06/16 03:02:19;;;;;;;4.03;3.65;;;13.70;99.90;;;;;;5017155;28;21086;-71
2022/06/16 03:04:48;;;;;;;6.03;3.72;;;13.80;99.90;;;;;;5021889;28;20282;-71
2022/06/16 03:07:16;;;;;;;6.30;3.80;;;13.80;99.90;;;;;;5016775;28;20201;-70
2022/06/16 03:09:43;;;;;;;7.00;3.92;;;13.80;99.90;;;;;;5016910;28;20270;-71
2022/06/16 03:12:12;;;;;;;6.05;3.20;;;13.80;99.90;;;;;;5011588;28;20286;-71
2022/06/16 03:14:39;;;;;;;10.00;3.13;;;13.90;99.90;;;;;;5016159;28;20201;-71
2022/06/16 03:17:07;;;;;;;8.10;4.90;;;13.90;99.90;;;;;;5020798;28;20632;-72
2022/06/16 03:19:36;;;;;;;6.90;3.00;;;13.90;99.90;;;;;;5010067;28;20244;-71
2022/06/16 03:22:04;;;;;;;5.22;3.22;;;13.90;99.90;;;;;;5014342;28;20679;-70
2022/06/16 03:24:31;;;;;;;12.65;3.88;;;13.90;99.90;;;;;;5024486;28;20714;-70
2022/06/16 03:26:59;;;;;;;4.78;2.60;;;13.90;99.90;;;;;;5021510;28;20287;-73
2022/06/16 03:29:26;;;;;;;11.02;3.90;;;13.90;99.90;;;;;;5013175;28;20640;-71
2022/06/16 03:31:54;;;;;;;5.50;3.58;;;13.90;99.90;;;;;;5013185;28;20242;-71
2022/06/16 03:34:21;;;;;;;3.50;3.20;;;13.90;99.90;;;;;;5014348;28;20218;-73
2022/06/16 03:36:50;;;;;;;7.57;3.45;;;14.00;99.90;;;;;;5016889;28;20248;-72
2022/06/16 03:39:17;;;;;;;5.85;2.95;;;14.00;99.90;;;;;;5026980;28;20766;-73
2022/06/16 03:41:44;;;;;;;5.38;3.20;;;14.00;99.90;;;;;;5017352;28;20593;-71
2022/06/16 03:44:11;;;;;;;5.25;4.75;;;14.00;99.90;;;;;;5021709;28;20208;-70
2022/06/16 03:46:38;;;;;;;3.80;3.10;;;14.10;99.90;;;;;;5023615;28;20292;-71
2022/06/16 03:49:06;;;;;;;4.75;2.90;;;14.20;99.90;;;;;;5021251;28;20259;-73
2022/06/16 03:51:33;;;;;;;5.90;3.50;;;14.30;99.90;;;;;;5010259;28;20685;-73
2022/06/16 03:54:01;;;;;;;6.32;3.33;;;14.40;99.90;;;;;;5012682;28;20293;-69
2022/06/16 03:56:28;;;;;;;3.50;3.20;;;14.50;99.90;;;;;;5018778;28;20224;-69
2022/06/16 03:58:57;;;;;;;4.72;2.78;;;14.60;99.90;;;;;;5026411;28;20636;-72
2022/06/16 04:01:24;;;;;;;6.15;2.65;;;14.70;99.90;;;;;;5028921;28;20699;-70
2022/06/16 04:04:03;;;;;;;9.45;3.80;;;14.80;99.90;;;;;;5012980;28;20287;-70
2022/06/16 04:06:32;;;;;;;6.30;4.00;;;14.80;99.90;;;;;;5015887;28;20287;-70
2022/06/16 04:09:01;;;;;;;8.05;3.95;;;14.80;99.90;;;;;;5016686;28;20293;-72
2022/06/16 04:11:28;;;;;;;5.38;3.33;;;14.90;99.90;;;;;;5024600;28;20291;-69
2022/06/16 04:14:00;;;;;;;6.18;3.08;;;15.10;99.90;;;;;;5011233;28;20240;-71
2022/06/16 04:16:28;;;;;;;5.00;2.85;;;15.30;99.90;;;;;;5013798;28;20196;-71
2022/06/16 04:18:55;;;;;;;6.63;3.60;;;15.50;99.90;;;;;;5011386;28;20207;-70
2022/06/16 04:21:22;;;;;;;6.30;3.53;;;15.60;99.90;;;;;;5016374;28;20203;-70
2022/06/16 04:23:50;;;;;;;8.77;3.03;;;15.70;99.90;;;;;;5022266;28;20250;-70
2022/06/16 04:26:18;;;;;;;3.42;2.20;;;15.70;99.90;;;;;;5025491;28;20288;-72
2022/06/16 04:28:45;;;;;;;6.40;2.95;;;15.80;99.90;;;;;;5011953;28;20744;-68
2022/06/16 04:31:12;;;;;;;4.22;2.70;;;15.90;99.90;;;;;;5006573;28;20284;-73
2022/06/16 04:33:40;;;;;;;7.57;3.05;;;16.00;99.90;;;;;;5012663;28;20711;-72
2022/06/16 04:36:08;;;;;;;6.03;2.67;;;16.00;99.90;;;;;;5006437;28;20296;-72
2022/06/16 04:38:35;;;;;;;6.40;2.50;;;16.30;99.90;;;;;;5025262;28;20284;-72
2022/06/16 04:41:02;;;;;;;4.28;2.70;;;16.50;99.90;;;;;;5017828;28;20305;-69
2022/06/16 04:43:32;;;;;;;7.00;3.20;;;16.50;99.90;;;;;;5007171;28;20209;-74
2022/06/16 04:46:00;;;;;;;6.40;3.40;;;16.50;99.90;;;;;;5023349;28;20288;-69
2022/06/16 04:48:27;;;;;;;5.45;2.50;;;16.60;99.90;;;;;;5012648;28;20449;-73
2022/06/16 04:50:54;;;;;;;6.72;3.35;;;16.80;99.90;;;;;;5016896;28;20300;-71
2022/06/16 04:53:21;;;;;;;6.70;4.37;;;17.30;99.90;;;;;;5009165;28;20214;-73
2022/06/16 04:55:53;;;;;;;4.50;2.23;;;17.80;99.90;;;;;;5010584;28;20479;-73
2022/06/16 04:58:20;;;;;;;5.43;3.70;;;18.20;99.90;;;;;;5010930;28;20487;-72
2022/06/16 05:00:49;;;;;;;4.30;2.90;;;18.70;99.90;;;;;;5017326;28;20558;-74
2022/06/16 05:03:17;;;;;;;7.47;2.90;;;18.80;99.90;;;;;;5017563;28;20480;-73
2022/06/16 05:05:45;;;;;;;4.33;3.07;;;19.20;99.90;;;;;;5022112;28;20442;-72
2022/06/16 05:08:12;;;;;;;6.13;2.60;;;19.40;99.90;;;;;;5022766;28;20442;-70
2022/06/16 05:10:39;;;;;;;3.17;2.80;;;19.90;99.90;;;;;;5017628;28;20555;-72
2022/06/16 05:13:06;;;;;;;3.87;2.40;;;21.10;99.90;;;;;;5022231;28;20488;-72
2022/06/16 05:15:34;;;;;;;7.67;2.70;;;22.40;97.50;;;;;;5023564;28;20483;-71
2022/06/16 05:18:03;;;;;;;6.10;2.00;;;23.70;94.40;;;;;;5022255;28;20461;-74
2022/06/16 05:20:30;;;;;;;2.60;1.67;;;24.80;91.50;;;;;;5025355;28;20467;-72
2022/06/16 05:22:57;;;;;;;5.83;2.23;;;25.60;88.20;;;;;;5025623;28;20558;-73
2022/06/16 05:25:24;;;;;;;3.63;1.93;;;25.70;86.10;;;;;;5015883;28;20494;-70
2022/06/16 05:27:51;;;;;;;2.80;1.90;;;25.40;85.80;;;;;;5014253;28;20967;-69
2022/06/16 05:30:18;;;;;;;2.50;1.97;;;24.50;86.50;;;;;;5020635;28;20565;-69
2022/06/16 05:32:45;;;;;;;2.80;2.40;;;23.50;89.80;;;;;;5009628;28;21026;-70
2022/06/16 05:35:13;;;;;;;3.97;2.27;;;22.70;90.80;;;;;;5013633;28;20490;-71
2022/06/16 05:37:41;;;;;;;3.13;2.10;;;22.30;91.70;;;;;;5023237;28;20528;-71
2022/06/16 05:40:08;;;;;;;5.07;2.30;;;22.10;92.50;;;;;;5013674;28;20477;-70
2022/06/16 05:42:42;;;;;;;5.40;2.53;;;22.10;92.90;;;;;;5013597;28;20996;-70
2022/06/16 05:45:11;;;;;;;3.00;1.80;;;22.90;92.60;;;;;;5018141;28;20482;-70
2022/06/16 05:47:39;;;;;;;2.60;1.77;;;24.10;90.90;;;;;;5020164;28;20544;-70
2022/06/16 05:50:08;;;;;;;5.93;2.03;;;25.10;88.80;;;;;;5018163;28;20576;-70
2022/06/16 05:52:36;;;;;;;4.37;2.10;;;26.10;84.90;;;;;;5026409;28;20471;-68
2022/06/16 05:55:03;;;;;;;2.80;1.53;;;25.40;84.10;;;;;;5016510;28;20486;-70
2022/06/16 05:57:31;;;;;;;4.30;2.20;;;24.80;85.80;;;;;;5023704;28;20538;-72
2022/06/16 05:59:58;;;;;;;4.13;1.77;;;24.40;87.20;;;;;;5025115;28;20542;-71
2022/06/16 06:02:25;;;;;;;6.13;2.23;;;24.90;87.10;;;;;;5018212;28;20489;-70
2022/06/16 06:04:51;;;;;;;3.93;1.80;;;25.80;85.10;;;;;;5018448;28;20481;-72
2022/06/16 06:07:24;;;;;;;5.40;2.00;;;26.60;82.80;;;;;;5012062;28;20538;-71
2022/06/16 06:18:20;;;;;;;5.27;2.03;;;29.10;72.50;;;;;;5017916;28;20482;-70
2022/06/16 06:20:47;;;;;;;3.17;2.07;;;29.20;72.00;;;;;;5019405;28;20470;-72
2022/06/16 06:23:14;;;;;;;4.30;2.07;;;29.40;71.00;;;;;;5011289;28;20515;-72
2022/06/16 06:25:43;;;;;;;2.42;1.90;;;29.60;69.80;;;;;;5012844;28;20521;-71
2022/06/16 06:28:15;;;;;;;3.30;2.03;;;29.70;68.80;;;;;;5013409;28;20299;-73
2022/06/16 06:30:44;;;;;;;5.20;1.80;;;30.00;68.10;;;;;;5013411;28;20558;-72
2022/06/16 06:33:11;;;;;;;4.43;1.67;;;30.50;66.70;;;;;;5026140;28;20540;-72
2022/06/16 06:35:38;;;;;;;4.27;1.40;;;30.30;65.90;;;;;;5018812;28;20807;-69
2022/06/16 06:38:05;;;;;;;3.07;1.93;;;30.30;65.60;;;;;;5025818;28;20452;-71
2022/06/16 06:40:35;;;;;;;2.33;1.20;;;30.50;65.50;;;;;;5026345;28;20510;-71
2022/06/16 06:43:04;;;;;;;3.30;1.63;;;30.50;64.90;;;;;;5022984;28;20550;-71
2022/06/16 06:45:31;;;;;;;3.13;1.47;;;30.60;64.50;;;;;;5028417;28;20479;-72
2022/06/16 06:47:59;;;;;;;5.07;1.30;;;30.80;63.70;;;;;;5022105;28;20532;-72
2022/06/16 06:50:28;;;;;;;4.80;2.03;;;30.60;63.00;;;;;;5018474;28;20883;-72
2022/06/16 06:52:55;;;;;;;2.97;1.40;;;30.20;63.20;;;;;;5017452;28;20941;-72
2022/06/16 06:55:22;;;;;;;5.03;1.20;;;30.20;63.20;;;;;;5021687;28;20473;-72
2022/06/16 06:57:52;;;;;;;4.43;1.40;;;30.30;62.80;;;;;;5026788;28;20834;-71
2022/06/16 07:00:22;;;;;;;2.13;1.20;;;30.20;63.10;;;;;;5017121;28;20547;-71
2022/06/16 07:02:49;;;;;;;2.80;0.90;;;30.30;62.60;;;;;;5023746;28;20483;-72
2022/06/16 07:05:16;;;;;;;2.80;1.27;;;30.50;62.20;;;;;;5023336;28;20523;-69
2022/06/16 07:07:45;;;;;;;2.60;1.80;;;30.50;61.40;;;;;;5023984;28;20447;-71
2022/06/16 07:10:12;;;;;;;2.10;1.13;;;30.50;61.10;;;;;;5020100;28;20537;-71
2022/06/16 07:12:39;;;;;;;3.27;1.10;;;30.40;60.00;;;;;;5006733;28;20454;-71
2022/06/16 07:15:07;;;;;;;3.73;1.00;;;30.20;59.70;;;;;;5024678;28;20457;-72
2022/06/16 07:17:35;;;;;;;2.90;0.90;;;30.80;59.10;;;;;;5021826;28;20514;-71
2022/06/16 07:20:02;;;;;;;1.67;1.03;;;31.40;57.60;;;;;;5016915;28;20568;-70
2022/06/16 07:22:29;;;;;;;2.80;1.10;;;32.10;56.10;;;;;;5010589;28;20835;-70
2022/06/16 07:24:56;;;;;;;3.07;1.20;;;32.00;56.00;;;;;;5007934;28;20777;-71
2022/06/16 07:27:23;;;;;;;1.77;1.03;;;32.00;55.60;;;;;;5025322;28;20445;-71
2022/06/16 07:29:50;;;;;;;2.30;1.07;;;32.40;54.90;;;;;;5013429;28;20547;-71
2022/06/16 07:32:18;;;;;;;4.47;1.83;;;32.30;54.70;;;;;;5027534;28;20451;-71
2022/06/16 07:34:46;;;;;;;2.43;1.23;;;32.20;54.90;;;;;;5017736;28;20447;-71
2022/06/16 07:37:13;;;;;;;2.27;1.40;;;32.40;53.80;;;;;;5022359;28;20482;-71
2022/06/16 07:39:41;;;;;;;1.90;0.93;;;32.50;53.40;;;;;;5013141;28;20550;-70
2022/06/16 07:42:08;;;;;;;4.30;1.20;;;32.40;53.80;;;;;;5014834;28;20451;-71
2022/06/16 07:44:36;;;;;;;4.27;1.60;;;31.90;53.70;;;;;;5015017;28;20465;-71
2022/06/16 07:47:04;;;;;;;4.83;1.30;;;31.70;54.40;;;;;;5027605;28;20456;-72
2022/06/16 07:49:32;;;;;;;1.43;1.17;;;31.50;54.10;;;;;;5025805;28;20937;-71
2022/06/16 07:52:00;;;;;;;2.50;1.20;;;31.30;54.40;;;;;;5011467;28;20457;-70
2022/06/16 07:54:29;;;;;;;3.73;1.30;;;31.20;54.30;;;;;;4997682;28;20475;-71
2022/06/16 07:56:56;;;;;;;4.27;1.20;;;31.30;53.90;;;;;;5004429;28;20444;-72
2022/06/16 07:59:23;;;;;;;2.97;1.20;;;31.50;54.40;;;;;;5006291;28;20896;-73
2022/06/16 08:01:51;;;;;;;3.20;1.27;;;31.80;54.00;;;;;;5009535;28;20535;-72
2022/06/16 08:04:19;;;;;;;2.90;1.20;;;32.30;53.00;;;;;;5028172;28;20569;-72
2022/06/16 08:06:46;;;;;;;1.87;0.90;;;32.20;52.70;;;;;;5011190;28;20451;-70
2022/06/16 08:09:14;;;;;;;3.20;1.07;;;32.10;52.40;;;;;;5015190;28;20812;-69
2022/06/16 08:14:26;;;;;;;2.70;1.20;;;32.50;52.00;;;;;;5010859;28;20449;-70
2022/06/16 08:16:53;;;;;;;1.00;0.70;;;33.00;50.80;;;;;;5025401;28;20465;-69
2022/06/16 08:19:21;;;;;;;4.03;1.40;;;33.10;50.50;;;;;;5019808;28;20475;-70
2022/06/16 08:21:49;;;;;;;1.57;0.83;;;33.80;49.40;;;;;;5014677;28;20468;-70
2022/06/16 08:24:18;;;;;;;2.20;1.00;;;34.30;48.40;;;;;;5018107;28;20483;-70
2022/06/16 08:26:46;;;;;;;1.77;1.03;;;34.40;47.90;;;;;;5012375;28;20584;-69
2022/06/16 08:29:16;;;;;;;1.10;0.80;;;34.40;47.40;;;;;;5014948;28;21029;-69
2022/06/16 08:31:43;;;;;;;1.80;1.10;;;33.70;48.50;;;;;;4997610;28;20456;-69
2022/06/16 08:34:10;;;;;;;3.07;0.90;;;33.10;48.80;;;;;;5023614;28;20451;-70
2022/06/16 08:36:38;;;;;;;2.47;1.40;;;33.10;49.50;;;;;;5010295;28;20535;-68
2022/06/16 08:39:05;;;;;;;3.20;1.70;;;32.80;49.60;;;;;;5016011;28;20514;-70
2022/06/16 08:41:41;;;;;;;2.10;1.20;;;32.80;49.70;;;;;;5026597;28;20450;-69
2022/06/16 08:44:13;;;;;;;3.07;1.30;;;33.00;50.40;;;;;;5018784;28;20571;-69
2022/06/16 08:46:46;;;;;;;2.33;1.20;;;33.20;49.90;;;;;;5024744;28;20443;-70
2022/06/16 08:49:24;;;;;;;3.87;2.70;;;33.50;49.50;;;;;;5024989;28;20566;-71
2022/06/16 08:52:21;;;;;;;2.00;1.03;;;33.40;48.50;;;;;;5014422;28;20891;-68
2022/06/16 08:54:59;;;;;;;2.43;1.40;;;33.10;49.60;;;;;;5009952;28;20579;-71
2022/06/16 08:57:38;;;;;;;3.37;1.40;;;32.80;49.90;;;;;;5013960;28;20546;-70
2022/06/16 09:00:07;;;;;;;3.90;1.20;;;32.00;49.90;;;;;;5014401;28;20475;-70
2022/06/16 09:02:43;;;;;;;2.60;1.07;;;31.70;50.20;;;;;;5019083;28;20534;-70
2022/06/16 09:05:22;;;;;;;2.47;1.10;;;31.70;50.70;;;;;;5014076;28;20498;-71
2022/06/16 09:07:58;;;;;;;4.90;1.23;;;32.00;50.10;;;;;;5014288;28;20506;-69
2022/06/16 09:10:34;;;;;;;2.40;0.90;;;32.40;49.20;;;;;;5030047;28;20509;-70
2022/06/16 09:13:40;;;;;;;3.50;1.07;;;32.40;49.20;;;;;;5011348;28;20443;-69
2022/06/16 09:16:22;;;;;;;2.33;1.40;;;32.50;49.50;;;;;;5018780;28;20450;-69
2022/06/16 09:19:40;;;;;;;1.47;0.93;;;32.20;49.10;;;;;;5010106;28;20830;-70
2022/06/16 09:22:24;;;;;;;5.87;3.53;;;32.70;49.00;;;;;;5006457;28;20556;-70
2022/06/16 09:25:06;;;;;;;2.60;1.10;;;32.50;48.70;;;;;;5013815;28;20551;-70
2022/06/16 09:27:38;;;;;;;2.50;1.00;;;31.40;50.40;;;;;;5010815;28;21318;-69
2022/06/16 09:30:08;;;;;;;2.97;1.30;;;31.00;51.80;;;;;;5013946;28;20483;-70
2022/06/16 09:32:40;;;;;;;3.60;1.43;;;30.60;52.30;;;;;;5026686;28;20439;-69
2022/06/16 09:35:13;;;;;;;3.37;1.10;;;30.20;52.20;;;;;;5023584;28;20447;-71
2022/06/16 09:37:47;;;;;;;10.87;3.07;;;30.30;53.60;;;;;;5022639;28;20820;-69
2022/06/16 09:40:18;;;;;;;2.43;1.10;;;30.30;53.00;;;;;;5024834;28;20559;-70
2022/06/16 09:42:55;;;;;;;2.37;1.33;;;30.40;53.20;;;;;;5026679;28;20504;-71
2022/06/16 09:45:26;;;;;;;1.27;0.90;;;30.40;53.10;;;;;;5029337;28;20442;-71
2022/06/16 09:48:07;;;;;;;1.53;1.03;;;30.00;53.00;;;;;;5020528;28;20574;-71
2022/06/16 09:50:41;;;;;;;2.27;1.20;;;29.70;54.70;;;;;;5019142;28;20464;-71
2022/06/16 09:53:15;;;;;;;2.90;1.30;;;29.90;53.50;;;;;;5013702;28;20451;-70
2022/06/16 09:55:48;;;;;;;1.47;1.00;;;29.90;53.00;;;;;;5013594;28;20439;-69
2022/06/16 09:58:23;;;;;;;2.10;1.30;;;30.60;51.90;;;;;;5019760;28;20952;-70
2022/06/16 10:00:54;;;;;;;2.60;1.40;;;31.40;51.70;;;;;;5019982;28;20469;-69
2022/06/16 10:03:34;;;;;;;2.30;1.10;;;31.50;51.10;;;;;;5023068;28;20647;-69
2022/06/16 10:06:14;;;;;;;2.40;0.93;;;31.40;50.80;;;;;;5020688;28;20482;-69
2022/06/16 10:08:47;;;;;;;2.00;0.93;;;31.00;51.70;;;;;;5012328;28;20472;-69
2022/06/16 10:11:26;;;;;;;2.00;0.87;;;31.00;50.40;;;;;;5023551;28;20440;-70
2022/06/16 10:14:06;;;;;;;3.70;1.20;;;31.30;50.80;;;;;;5017489;28;20439;-71
2022/06/16 10:16:46;;;;;;;1.67;1.17;;;31.40;51.60;;;;;;5017927;28;20880;-69
2022/06/16 10:19:14;;;;;;;3.67;1.47;;;31.60;50.70;;;;;;5020167;28;20528;-70
2022/06/16 10:21:41;;;;;;;2.30;1.27;;;31.60;50.70;;;;;;5018431;28;20619;-70
2022/06/16 10:24:09;;;;;;;2.10;1.10;;;31.00;51.00;;;;;;5023597;28;20574;-70
2022/06/16 10:26:36;;;;;;;4.90;1.37;;;30.70;52.20;;;;;;5014103;28;20484;-70
2022/06/16 10:29:13;;;;;;;2.27;1.47;;;30.50;51.20;;;;;;5013380;28;20468;-70
2022/06/16 10:31:45;;;;;;;1.97;1.27;;;30.30;52.60;;;;;;5011928;28;20456;-71
2022/06/16 10:34:27;;;;;;;2.37;1.20;;;30.20;52.90;;;;;;5010699;28;20487;-70
2022/06/16 10:36:58;;;;;;;1.97;1.07;;;30.20;52.80;;;;;;5014253;28;20860;-69
2022/06/16 10:39:32;;;;;;;1.73;1.10;;;30.10;53.50;;;;;;5017168;28;20483;-71
2022/06/16 10:42:05;;;;;;;1.97;1.50;;;29.90;53.30;;;;;;5018464;28;20642;-70
2022/06/16 10:44:34;;;;;;;3.00;1.20;;;29.00;53.70;;;;;;5016618;28;20943;-70
2022/06/16 10:47:06;;;;;;;4.20;2.13;;;28.20;55.50;;;;;;5022770;28;20440;-70
2022/06/16 10:49:36;;;;;;;5.33;1.80;;;28.00;56.50;;;;;;5023490;28;20471;-71
2022/06/16 10:52:09;;;;;;;3.40;1.50;;;28.10;56.60;;;;;;5007911;28;20543;-71
2022/06/16 10:54:38;;;;;;;4.93;2.03;;;27.90;55.70;;;;;;5019633;28;20579;-70
2022/06/16 10:57:08;;;;;;;4.20;1.13;;;27.50;56.80;;;;;;5013230;28;20454;-70
2022/06/16 10:59:40;;;;;;;2.47;1.60;;;27.30;56.80;;;;;;5016230;28;20466;-70
2022/06/16 11:02:22;;;;;;;3.13;1.20;;;27.30;57.00;;;;;;5017268;28;20476;-70
2022/06/16 11:04:57;;;;;;;3.70;1.83;;;26.90;57.90;;;;;;5026221;28;20993;-71
2022/06/16 11:07:28;;;;;;;4.93;1.93;;;26.50;58.30;;;;;;5005528;28;20482;-70
2022/06/16 11:10:03;;;;;;;2.47;1.47;;;26.00;59.90;;;;;;5012751;28;20485;-70
2022/06/16 11:12:31;;;;;;;2.30;1.53;;;25.90;61.00;;;;;;5019040;28;20535;-69
2022/06/16 11:15:01;;;;;;;2.80;1.37;;;26.00;61.90;;;;;;5026342;28;20501;-71
2022/06/16 11:17:30;;;;;;;3.10;1.47;;;25.80;61.00;;;;;;5023762;28;20502;-69
2022/06/16 11:20:01;;;;;;;2.10;1.20;;;26.00;61.40;;;;;;5017816;28;20475;-69
2022/06/16 11:22:32;;;;;;;3.53;1.73;;;26.20;59.70;;;;;;5019901;28;20503;-69
2022/06/16 11:25:05;;;;;;;3.87;1.70;;;26.50;60.10;;;;;;5006335;28;20489;-72
2022/06/16 11:27:41;;;;;;;2.57;1.53;;;26.70;59.40;;;;;;5008948;28;20559;-70
2022/06/16 11:30:30;;;;;;;3.23;1.77;;;26.70;59.90;;;;;;5025336;28;20553;-69
2022/06/16 11:32:57;;;;;;;2.90;1.30;;;26.30;61.00;;;;;;5004686;28;20893;-70
2022/06/16 11:35:33;;;;;;;2.33;1.30;;;26.30;61.00;;;;;;5025979;28;20469;-69
2022/06/16 11:38:02;;;;;;;2.80;1.60;;;26.20;61.00;;;;;;5026469;28;20453;-69
2022/06/16 11:40:39;;;;;;;6.40;2.07;;;26.10;60.60;;;;;;5005452;28;20466;-69
2022/06/16 11:43:57;;;;;;;7.43;2.07;;;25.80;59.70;;;;;;5015253;28;20450;-70
2022/06/16 11:46:30;;;;;;;2.80;1.70;;;25.60;60.70;;;;;;4976402;28;20576;-69
2022/06/16 11:49:10;;;;;;;6.63;2.30;;;25.20;62.10;;;;;;4971084;28;20533;-70
2022/06/16 11:51:44;;;;;;;3.97;1.30;;;25.00;62.80;;;;;;4982556;28;20529;-70
2022/06/16 11:54:28;;;;;;;2.70;1.77;;;25.10;63.90;;;;;;5020572;28;20452;-69
2022/06/16 11:57:05;;;;;;;3.27;1.43;;;25.30;64.50;;;;;;5019321;28;20487;-69
2022/06/16 12:00:04;;;;;;;3.63;1.80;;;25.40;62.90;;;;;;5009141;28;20470;-68
2022/06/16 12:03:17;;;;;;;8.67;1.97;;;25.20;63.00;;;;;;5023220;28;20566;-70
2022/06/16 12:05:52;;;;;;;3.03;1.37;;;25.00;64.00;;;;;;5022087;28;20491;-71
2022/06/16 12:08:44;;;;;;;2.97;1.83;;;25.10;63.60;;;;;;5012550;28;20907;-71
2022/06/16 12:11:16;;;;;;;6.20;2.30;;;25.30;63.40;;;;;;5012382;28;20942;-70
2022/06/16 12:13:56;;;;;;;2.77;1.80;;;25.30;63.50;;;;;;5019938;28;20891;-71
2022/06/16 12:16:30;;;;;;;3.57;2.53;;;25.20;63.00;;;;;;5019195;28;20442;-72
2022/06/16 12:19:13;;;;;;;4.23;2.57;;;25.10;63.00;;;;;;5027350;28;20450;-70
2022/06/16 12:21:44;;;;;;;3.17;2.07;;;25.10;63.30;;;;;;5008854;28;20538;-71
2022/06/16 12:24:28;;;;;;;2.90;2.07;;;25.10;63.80;;;;;;5022026;28;20993;-70
2022/06/16 12:27:01;;;;;;;4.63;2.47;;;25.10;63.30;;;;;;5021170;28;20436;-70
2022/06/16 12:29:38;;;;;;;2.70;1.90;;;25.00;63.10;;;;;;5006813;28;20534;-72
2022/06/16 12:32:17;;;;;;;6.10;2.17;;;25.20;63.50;;;;;;5023905;28;20546;-70
2022/06/16 12:34:57;;;;;;;3.60;1.97;;;25.30;62.10;;;;;;5010642;28;20479;-69
2022/06/16 12:37:29;;;;;;;3.20;2.30;;;25.30;62.80;;;;;;5020796;28;20442;-71
2022/06/16 12:40:03;;;;;;;7.57;2.00;;;25.10;62.40;;;;;;5017668;28;20639;-71
2022/06/16 12:42:36;;;;;;;3.87;2.50;;;24.80;62.70;;;;;;5009427;28;20905;-72
2022/06/16 12:45:09;;;;;;;3.70;2.40;;;24.90;63.00;;;;;;5009241;28;20579;-72
2022/06/16 12:47:41;;;;;;;2.73;1.67;;;25.00;63.20;;;;;;5017264;28;20449;-70
2022/06/16 12:50:16;;;;;;;3.63;1.80;;;25.00;62.00;;;;;;5019904;28;20673;-70
2022/06/16 12:52:48;;;;;;;4.30;1.60;;;24.90;61.50;;;;;;5018823;28;20450;-69
2022/06/16 12:55:22;;;;;;;4.00;2.00;;;24.60;60.00;;;;;;4999676;28;20480;-70
2022/06/16 12:57:56;;;;;;;2.33;1.67;;;24.50;61.20;;;;;;5025691;28;20491;-70
2022/06/16 13:00:26;;;;;;;2.60;1.63;;;24.70;61.30;;;;;;5009693;28;20492;-70
2022/06/16 13:03:03;;;;;;;6.80;2.50;;;24.80;60.80;;;;;;5023465;28;20541;-69
2022/06/16 13:05:30;;;;;;;2.13;1.50;;;24.80;60.70;;;;;;5013651;28;20569;-70
2022/06/16 13:07:59;;;;;;;5.33;2.30;;;24.70;60.30;;;;;;5011803;28;20458;-69
2022/06/16 13:10:28;;;;;;;3.77;2.23;;;24.60;60.30;;;;;;5008479;28;20468;-70
2022/06/16 13:13:00;;;;;;;2.23;1.10;;;24.70;60.80;;;;;;5013528;28;20454;-69
2022/06/16 13:15:31;;;;;;;10.90;2.13;;;24.60;60.50;;;;;;5008389;28;20530;-69
2022/06/16 13:18:06;;;;;;;1.90;1.50;;;24.60;60.80;;;;;;5020101;28;20460;-69
2022/06/16 13:20:34;;;;;;;2.60;1.50;;;24.70;61.10;;;;;;5018546;28;20541;-70
2022/06/16 13:23:10;;;;;;;14.43;2.70;;;24.70;61.30;;;;;;5012027;28;20530;-71